Lykes Provider — VQIV9 — position and weather

sailwx.info

Track history (hours):
 
Tides and Currents Weather Stations Pressure Air Temp Water Temp Dewpoint Dewpoint Depression Visibility Wind Speed Wind Dir Waves Ship Positions

Lykes Provider

Last reported at 2015-Jul-17 09:33 UTC. Time now 2015-Jul-30 16:16 UTC.
Position N 02°51' E 100°59'.
Warning: this ship's position is 13 days out of date.

Length 260 m; draft 12 m.

Type: Cargo ship. MMSI: 235645000.

Date/timePositionNaut miles runAvg speedWind from/ knotsBaromVisibWave heightAir tempDewpointWater temp
2015-Jul-17 09:33N 02°51' E 100°59'2713.3
2015-Jul-17 07:33N 02°39' E 101°23'1515.1
2015-Jul-17 06:33N 02°30' E 101°35'1615.2
2015-Jul-17 05:32N 02°21' E 101°48'14112.8
2015-Jul-16 18:31N 01°14' E 103°52'2 0.9
2015-Jul-16 16:23N 01°16' E 103°51'0 0.0
2015-Jul-16 09:17N 01°16' E 103°51'0 0.0
2015-Jul-16 02:29N 01°16' E 103°51'0 0.4
2015-Jul-16 01:34N 01°16' E 103°51'6 5.7
2015-Jul-16 00:31N 01°15' E 103°57'3 2.3
2015-Jul-15 23:25N 01°15' E 103°60'  
2015-Jul-12 01:09N 22°09' E 113°50'915.1
2015-Jul-12 00:33N 22°18' E 113°48'7 0.5
2015-Jul-11 10:20N 22°24' E 113°46'1013.2
2015-Jul-11 09:33N 22°14' E 113°49'18 4.4
2015-Jul-11 05:33N 22°20' E 114°07'1 0.1
2015-Jul-11 00:31N 22°20' E 114°08'0 0.0
2015-Jul-10 23:28N 22°20' E 114°08'0 0.0
2015-Jul-10 22:28N 22°20' E 114°08'0 0.0
2015-Jul-10 21:31N 22°20' E 114°08'0 0.0
2015-Jul-10 19:28N 22°20' E 114°08'13 6.7
2015-Jul-10 17:33N 22°09' E 114°15'9 9.4
2015-Jul-10 16:33N 22°09' E 114°25'16510.9
2015-Jul-10 01:24N 22°59' E 117°16'9716.4
2015-Jul-09 19:29N 24°00' E 118°37'39615.2
2015-Jul-08 17:21N 29°38' E 122°30'1316.1
2015-Jul-08 16:33N 29°46' E 122°18'1312.6
2015-Jul-08 15:33N 29°55' E 122°09'5 3.7
2015-Jul-08 14:20N 29°53' E 122°04'0 0.0
2015-Jul-08 13:32N 29°53' E 122°04'0 0.0
2015-Jul-08 12:32N 29°53' E 122°04'0 0.0
2015-Jul-08 11:32N 29°53' E 122°04'0 0.0
2015-Jul-08 10:26N 29°53' E 122°04'0 0.0
2015-Jul-08 09:14N 29°53' E 122°04'0 0.0
2015-Jul-08 08:32N 29°53' E 122°04'0 0.0
2015-Jul-08 07:32N 29°53' E 122°04'0 0.0
2015-Jul-08 06:14N 29°53' E 122°04'0 0.0
2015-Jul-08 05:14N 29°53' E 122°04'0 0.0
2015-Jul-08 04:23N 29°53' E 122°04'6 6.9
2015-Jul-08 03:33N 29°55' E 122°10'1212.4
2015-Jul-08 02:33N 29°45' E 122°19'1514.9
2015-Jul-08 01:32N 29°46' E 122°36'5012.1
2015-Jul-07 21:26N 30°33' E 122°18'11 1.4
2015-Jul-07 13:31N 30°36' E 122°05'10 9.9
2015-Jul-07 12:33N 30°33' E 122°16'10 9.5
2015-Jul-07 11:31N 30°32' E 122°27'  
Track history (hours):
 
Tides and Currents Weather Stations Pressure Air Temp Water Temp Dewpoint Dewpoint Depression Visibility Wind Speed Wind Dir Waves Ship Positions

Lykes Provider

Last reported at 2015-Jul-17 09:33 UTC. Time now 2015-Jul-30 16:16 UTC.
Position N 02°51' E 100°59'.
Warning: this ship's position is 13 days out of date.

Length 260 m; draft 12 m.

Type: Cargo ship. MMSI: 235645000.

Date/timePositionNaut miles runAvg speedWind from/ knotsBaromVisibWave heightAir tempDewpointWater temp
2015-Jul-17 09:33N 02°51' E 100°59'2713.3
2015-Jul-17 07:33N 02°39' E 101°23'1515.1
2015-Jul-17 06:33N 02°30' E 101°35'1615.2
2015-Jul-17 05:32N 02°21' E 101°48'14112.8
2015-Jul-16 18:31N 01°14' E 103°52'2 0.9
2015-Jul-16 16:23N 01°16' E 103°51'0 0.0
2015-Jul-16 09:17N 01°16' E 103°51'0 0.0
2015-Jul-16 02:29N 01°16' E 103°51'0 0.4
2015-Jul-16 01:34N 01°16' E 103°51'6 5.7
2015-Jul-16 00:31N 01°15' E 103°57'3 2.3
2015-Jul-15 23:25N 01°15' E 103°60'  
2015-Jul-12 01:09N 22°09' E 113°50'915.1
2015-Jul-12 00:33N 22°18' E 113°48'7 0.5
2015-Jul-11 10:20N 22°24' E 113°46'1013.2
2015-Jul-11 09:33N 22°14' E 113°49'18 4.4
2015-Jul-11 05:33N 22°20' E 114°07'1 0.1
2015-Jul-11 00:31N 22°20' E 114°08'0 0.0
2015-Jul-10 23:28N 22°20' E 114°08'0 0.0
2015-Jul-10 22:28N 22°20' E 114°08'0 0.0
2015-Jul-10 21:31N 22°20' E 114°08'0 0.0
2015-Jul-10 19:28N 22°20' E 114°08'13 6.7
2015-Jul-10 17:33N 22°09' E 114°15'9 9.4
2015-Jul-10 16:33N 22°09' E 114°25'16510.9
2015-Jul-10 01:24N 22°59' E 117°16'9716.4
2015-Jul-09 19:29N 24°00' E 118°37'39615.2
2015-Jul-08 17:21N 29°38' E 122°30'1316.1
2015-Jul-08 16:33N 29°46' E 122°18'1312.6
2015-Jul-08 15:33N 29°55' E 122°09'5 3.7
2015-Jul-08 14:20N 29°53' E 122°04'0 0.0
2015-Jul-08 13:32N 29°53' E 122°04'0 0.0
2015-Jul-08 12:32N 29°53' E 122°04'0 0.0
2015-Jul-08 11:32N 29°53' E 122°04'0 0.0
2015-Jul-08 10:26N 29°53' E 122°04'0 0.0
2015-Jul-08 09:14N 29°53' E 122°04'0 0.0
2015-Jul-08 08:32N 29°53' E 122°04'0 0.0
2015-Jul-08 07:32N 29°53' E 122°04'0 0.0
2015-Jul-08 06:14N 29°53' E 122°04'0 0.0
2015-Jul-08 05:14N 29°53' E 122°04'0 0.0
2015-Jul-08 04:23N 29°53' E 122°04'6 6.9
2015-Jul-08 03:33N 29°55' E 122°10'1212.4
2015-Jul-08 02:33N 29°45' E 122°19'1514.9
2015-Jul-08 01:32N 29°46' E 122°36'5012.1
2015-Jul-07 21:26N 30°33' E 122°18'11 1.4
2015-Jul-07 13:31N 30°36' E 122°05'10 9.9
2015-Jul-07 12:33N 30°33' E 122°16'10 9.5
2015-Jul-07 11:31N 30°32' E 122°27'  

Dump ship's entire track history